TimePDT,TemperatureF,Dew PointF,Humidity,Sea Level PressureIn,VisibilityMPH,Wind Direction,Wind SpeedMPH,Gust SpeedMPH,PrecipitationIn,Events,Conditions,WindDirDegrees,DateUTC
12:15 AM,50.0,17.6,28,30.34,10.0,Calm,Calm,-,N/A,,Clear,0,2013-07-18 07:15:00
12:35 AM,50.0,17.6,28,30.34,10.0,Calm,Calm,-,N/A,,Clear,0,2013-07-18 07:35:00
12:55 AM,50.0,19.4,30,30.34,10.0,Calm,Calm,-,N/A,,Clear,0,2013-07-18 07:55:00
1:15 AM,48.2,19.4,32,30.34,10.0,Calm,Calm,-,N/A,,Clear,0,2013-07-18 08:15:00
1:35 AM,50.0,21.2,32,30.33,10.0,Calm,Calm,-,N/A,,Clear,0,2013-07-18 08:35:00
1:55 AM,48.2,19.4,32,30.33,10.0,Calm,Calm,-,N/A,,Clear,0,2013-07-18 08:55:00
2:15 AM,46.4,19.4,34,30.33,10.0,Calm,Calm,-,N/A,,Clear,0,2013-07-18 09:15:00
2:35 AM,46.4,19.4,34,30.32,10.0,Calm,Calm,-,N/A,,Clear,0,2013-07-18 09:35:00
2:55 AM,46.4,21.2,37,30.31,10.0,Calm,Calm,-,N/A,,Clear,0,2013-07-18 09:55:00
3:15 AM,44.6,19.4,37,30.31,10.0,Calm,Calm,-,N/A,,Clear,0,2013-07-18 10:15:00
3:35 AM,44.6,19.4,37,30.31,10.0,Calm,Calm,-,N/A,,Clear,0,2013-07-18 10:35:00
3:55 AM,44.6,19.4,37,30.31,10.0,Calm,Calm,-,N/A,,Clear,0,2013-07-18 10:55:00
4:15 AM,44.6,19.4,37,30.31,10.0,Calm,Calm,-,N/A,,Clear,0,2013-07-18 11:15:00
4:35 AM,44.6,19.4,37,30.31,10.0,Calm,Calm,-,N/A,,Clear,0,2013-07-18 11:35:00
4:55 AM,44.6,21.2,39,30.31,10.0,Calm,Calm,-,N/A,,Clear,0,2013-07-18 11:55:00
5:15 AM,44.6,19.4,37,30.31,10.0,Calm,Calm,-,N/A,,Clear,0,2013-07-18 12:15:00
5:35 AM,42.8,21.2,42,30.31,10.0,Calm,Calm,-,N/A,,Clear,0,2013-07-18 12:35:00
5:55 AM,42.8,21.2,42,30.32,10.0,Calm,Calm,-,N/A,,Clear,0,2013-07-18 12:55:00
6:15 AM,42.8,21.2,42,30.32,10.0,Calm,Calm,-,N/A,,Clear,0,2013-07-18 13:15:00
6:35 AM,44.6,21.2,39,30.32,10.0,Calm,Calm,-,N/A,,Clear,0,2013-07-18 13:35:00
6:55 AM,46.4,26.6,46,30.32,10.0,Calm,Calm,-,N/A,,Clear,0,2013-07-18 13:55:00
7:15 AM,50.0,28.4,43,30.33,10.0,Calm,Calm,-,N/A,,Clear,0,2013-07-18 14:15:00
7:35 AM,53.6,30.2,41,30.33,10.0,Calm,Calm,-,N/A,,Clear,0,2013-07-18 14:35:00
7:55 AM,57.2,32.0,38,30.34,10.0,Calm,Calm,-,N/A,,Clear,0,2013-07-18 14:55:00
8:15 AM,60.8,28.4,29,30.34,10.0,Calm,Calm,-,N/A,,Clear,0,2013-07-18 15:15:00
8:35 AM,62.6,28.4,27,30.34,10.0,Calm,Calm,-,N/A,,Clear,0,2013-07-18 15:35:00
8:55 AM,68.0,24.8,20,30.34,10.0,Calm,Calm,-,N/A,,Clear,0,2013-07-18 15:55:00
9:15 AM,71.6,21.2,15,30.33,10.0,East,4.6,-,N/A,,Clear,80,2013-07-18 16:15:00
9:35 AM,73.4,21.2,14,30.33,10.0,ENE,4.6,-,N/A,,Clear,70,2013-07-18 16:35:00
9:55 AM,75.2,21.2,13,30.33,10.0,ENE,8.1,-,N/A,,Clear,60,2013-07-18 16:55:00
10:15 AM,75.2,21.2,13,30.33,10.0,NE,6.9,-,N/A,,Clear,50,2013-07-18 17:15:00
10:35 AM,77.0,21.2,12,30.33,10.0,NE,6.9,-,N/A,,Clear,50,2013-07-18 17:35:00
10:55 AM,77.0,21.2,12,30.33,10.0,ENE,6.9,-,N/A,,Clear,60,2013-07-18 17:55:00
11:15 AM,78.8,21.2,12,30.33,10.0,ENE,10.4,-,N/A,,Clear,60,2013-07-18 18:15:00
11:35 AM,78.8,21.2,12,30.32,10.0,East,9.2,17.3,N/A,,Clear,80,2013-07-18 18:35:00
11:55 AM,78.8,21.2,12,30.32,10.0,ENE,11.5,16.1,N/A,,Clear,70,2013-07-18 18:55:00
12:15 PM,78.8,21.2,12,30.32,10.0,NNE,8.1,16.1,N/A,,Clear,20,2013-07-18 19:15:00
12:35 PM,78.8,21.2,12,30.32,10.0,ENE,9.2,19.6,N/A,,Clear,60,2013-07-18 19:35:00
1:15 PM,80.6,21.2,11,30.32,10.0,ENE,10.4,19.6,N/A,,Clear,60,2013-07-18 20:15:00
1:35 PM,80.6,21.2,11,30.32,10.0,ENE,9.2,-,N/A,,Clear,60,2013-07-18 20:35:00
1:55 PM,80.6,21.2,11,30.31,10.0,ENE,10.4,17.3,N/A,,Clear,70,2013-07-18 20:55:00
2:15 PM,80.6,23.0,12,30.31,10.0,ENE,11.5,-,N/A,,Clear,60,2013-07-18 21:15:00
3:15 PM,80.6,21.2,11,30.29,10.0,NE,9.2,-,N/A,,Clear,50,2013-07-18 22:15:00
3:35 PM,80.6,21.2,11,30.28,10.0,ENE,12.7,17.3,N/A,,Clear,60,2013-07-18 22:35:00
3:55 PM,80.6,21.2,11,30.28,10.0,East,4.6,-,N/A,,Clear,80,2013-07-18 22:55:00
4:15 PM,80.6,21.2,11,30.27,10.0,NNE,3.5,-,N/A,,Clear,30,2013-07-18 23:15:00
4:35 PM,80.6,23.0,12,30.27,10.0,West,4.6,-,N/A,,Clear,270,2013-07-18 23:35:00
4:55 PM,80.6,26.6,14,30.26,10.0,West,8.1,-,N/A,,Clear,280,2013-07-18 23:55:00
5:15 PM,80.6,28.4,15,30.26,10.0,West,9.2,-,N/A,,Clear,260,2013-07-19 00:15:00
5:35 PM,80.6,21.2,11,30.26,10.0,North,5.8,-,N/A,,Clear,360,2013-07-19 00:35:00
5:55 PM,78.8,28.4,16,30.25,10.0,WSW,6.9,-,N/A,,Clear,250,2013-07-19 00:55:00
6:15 PM,77.0,28.4,17,30.26,10.0,West,5.8,-,N/A,,Clear,260,2013-07-19 01:15:00
6:35 PM,77.0,30.2,18,30.26,10.0,West,9.2,-,N/A,,Clear,270,2013-07-19 01:35:00
6:55 PM,75.2,30.2,19,30.27,10.0,WSW,5.8,-,N/A,,Clear,250,2013-07-19 01:55:00
7:15 PM,73.4,30.2,20,30.27,10.0,West,6.9,-,N/A,,Clear,260,2013-07-19 02:15:00
7:35 PM,71.6,28.4,20,30.28,10.0,West,4.6,-,N/A,,Clear,260,2013-07-19 02:35:00
7:55 PM,71.6,26.6,19,30.28,10.0,Calm,Calm,-,N/A,,Clear,0,2013-07-19 02:55:00
8:15 PM,69.8,28.4,21,30.29,10.0,Calm,Calm,-,N/A,,Clear,0,2013-07-19 03:15:00
8:35 PM,68.0,28.4,23,30.29,10.0,Calm,Calm,-,N/A,,Clear,0,2013-07-19 03:35:00
8:55 PM,64.4,28.4,26,30.30,10.0,Calm,Calm,-,N/A,,Clear,0,2013-07-19 03:55:00
9:15 PM,62.6,28.4,27,30.30,10.0,Calm,Calm,-,N/A,,Clear,0,2013-07-19 04:15:00
9:35 PM,62.6,26.6,26,30.30,10.0,Calm,Calm,-,N/A,,Clear,0,2013-07-19 04:35:00
9:55 PM,60.8,23.0,23,30.31,10.0,Calm,Calm,-,N/A,,Clear,0,2013-07-19 04:55:00
10:15 PM,59.0,23.0,25,30.31,10.0,Calm,Calm,-,N/A,,Clear,0,2013-07-19 05:15:00
10:35 PM,59.0,21.2,23,30.31,10.0,Calm,Calm,-,N/A,,Clear,0,2013-07-19 05:35:00
10:55 PM,57.2,21.2,25,30.31,10.0,Calm,Calm,-,N/A,,Clear,0,2013-07-19 05:55:00
11:15 PM,55.4,23.0,29,30.31,10.0,Calm,Calm,-,N/A,,Clear,0,2013-07-19 06:15:00
11:35 PM,55.4,23.0,29,30.30,10.0,Calm,Calm,-,N/A,,Clear,0,2013-07-19 06:35:00
11:55 PM,53.6,21.2,28,30.30,10.0,Calm,Calm,-,N/A,,Clear,0,2013-07-19 06:55:00